sensor_id;sensor_type;location;lat;lon;timestamp;P1;durP1;ratioP1;P2;durP2;ratioP2
56893;SDS011;43392;50.078;13.704;2023-08-12T00:01:10;13.63;;;8.10;;
56893;SDS011;43392;50.078;13.704;2023-08-12T00:03:36;17.77;;;8.93;;
56893;SDS011;43392;50.078;13.704;2023-08-12T00:06:03;19.35;;;8.82;;
56893;SDS011;43392;50.078;13.704;2023-08-12T00:08:30;14.88;;;8.75;;
56893;SDS011;43392;50.078;13.704;2023-08-12T00:10:58;15.50;;;9.63;;
56893;SDS011;43392;50.078;13.704;2023-08-12T00:13:25;18.45;;;9.02;;
56893;SDS011;43392;50.078;13.704;2023-08-12T00:15:51;13.25;;;7.28;;
56893;SDS011;43392;50.078;13.704;2023-08-12T00:18:18;12.95;;;6.85;;
56893;SDS011;43392;50.078;13.704;2023-08-12T00:20:44;13.38;;;7.35;;
56893;SDS011;43392;50.078;13.704;2023-08-12T00:23:11;12.32;;;7.55;;
56893;SDS011;43392;50.078;13.704;2023-08-12T00:25:38;13.80;;;7.00;;
56893;SDS011;43392;50.078;13.704;2023-08-12T00:28:06;11.23;;;6.55;;
56893;SDS011;43392;50.078;13.704;2023-08-12T00:30:32;13.55;;;7.57;;
56893;SDS011;43392;50.078;13.704;2023-08-12T00:32:59;11.55;;;7.10;;
56893;SDS011;43392;50.078;13.704;2023-08-12T00:35:25;15.18;;;7.97;;
56893;SDS011;43392;50.078;13.704;2023-08-12T00:37:52;11.35;;;7.28;;
56893;SDS011;43392;50.078;13.704;2023-08-12T00:40:19;14.20;;;7.50;;
56893;SDS011;43392;50.078;13.704;2023-08-12T00:42:45;11.18;;;7.10;;
56893;SDS011;43392;50.078;13.704;2023-08-12T00:45:14;10.98;;;6.97;;
56893;SDS011;43392;50.078;13.704;2023-08-12T00:47:41;10.70;;;5.32;;
56893;SDS011;43392;50.078;13.704;2023-08-12T00:50:08;8.73;;;4.72;;
56893;SDS011;43392;50.078;13.704;2023-08-12T00:55:05;10.63;;;4.97;;
56893;SDS011;43392;50.078;13.704;2023-08-12T00:57:32;9.75;;;4.70;;
56893;SDS011;43392;50.078;13.704;2023-08-12T00:59:59;8.95;;;5.22;;
56893;SDS011;43392;50.078;13.704;2023-08-12T01:02:27;10.68;;;5.63;;
56893;SDS011;43392;50.078;13.704;2023-08-12T01:04:54;10.82;;;5.65;;
56893;SDS011;43392;50.078;13.704;2023-08-12T01:07:20;13.55;;;8.60;;
56893;SDS011;43392;50.078;13.704;2023-08-12T01:09:47;12.80;;;7.55;;
56893;SDS011;43392;50.078;13.704;2023-08-12T01:12:15;11.25;;;7.53;;
56893;SDS011;43392;50.078;13.704;2023-08-12T01:14:51;16.92;;;8.60;;
56893;SDS011;43392;50.078;13.704;2023-08-12T01:17:27;14.63;;;9.27;;
56893;SDS011;43392;50.078;13.704;2023-08-12T01:19:55;14.70;;;8.32;;
56893;SDS011;43392;50.078;13.704;2023-08-12T01:22:22;15.77;;;8.88;;
56893;SDS011;43392;50.078;13.704;2023-08-12T01:24:53;14.68;;;8.45;;
56893;SDS011;43392;50.078;13.704;2023-08-12T01:27:19;14.70;;;8.60;;
56893;SDS011;43392;50.078;13.704;2023-08-12T01:29:46;14.45;;;8.85;;
56893;SDS011;43392;50.078;13.704;2023-08-12T01:32:19;16.23;;;9.00;;
56893;SDS011;43392;50.078;13.704;2023-08-12T01:34:53;15.45;;;9.02;;
56893;SDS011;43392;50.078;13.704;2023-08-12T01:37:24;17.60;;;8.63;;
56893;SDS011;43392;50.078;13.704;2023-08-12T01:39:55;12.63;;;8.20;;
56893;SDS011;43392;50.078;13.704;2023-08-12T01:42:25;13.07;;;8.27;;
56893;SDS011;43392;50.078;13.704;2023-08-12T01:44:52;15.40;;;8.93;;
56893;SDS011;43392;50.078;13.704;2023-08-12T01:47:19;14.93;;;8.52;;
56893;SDS011;43392;50.078;13.704;2023-08-12T01:49:45;15.45;;;9.98;;
56893;SDS011;43392;50.078;13.704;2023-08-12T01:52:12;16.13;;;9.02;;
56893;SDS011;43392;50.078;13.704;2023-08-12T01:54:39;14.82;;;9.18;;
56893;SDS011;43392;50.078;13.704;2023-08-12T01:57:07;17.92;;;8.93;;
56893;SDS011;43392;50.078;13.704;2023-08-12T01:59:34;15.60;;;9.55;;
56893;SDS011;43392;50.078;13.704;2023-08-12T02:02:01;13.55;;;8.73;;
56893;SDS011;43392;50.078;13.704;2023-08-12T02:04:28;15.27;;;9.10;;
56893;SDS011;43392;50.078;13.704;2023-08-12T02:06:55;13.02;;;8.68;;
56893;SDS011;43392;50.078;13.704;2023-08-12T02:09:22;16.60;;;9.02;;
56893;SDS011;43392;50.078;13.704;2023-08-12T02:11:49;13.43;;;9.18;;
56893;SDS011;43392;50.078;13.704;2023-08-12T02:14:17;13.55;;;8.48;;
56893;SDS011;43392;50.078;13.704;2023-08-12T02:16:44;13.30;;;8.57;;
56893;SDS011;43392;50.078;13.704;2023-08-12T02:19:10;13.32;;;8.73;;
56893;SDS011;43392;50.078;13.704;2023-08-12T02:21:37;13.55;;;8.50;;
56893;SDS011;43392;50.078;13.704;2023-08-12T02:24:04;13.20;;;8.60;;
56893;SDS011;43392;50.078;13.704;2023-08-12T02:26:30;14.30;;;8.27;;
56893;SDS011;43392;50.078;13.704;2023-08-12T02:28:57;13.75;;;8.50;;
56893;SDS011;43392;50.078;13.704;2023-08-12T02:31:25;13.00;;;8.55;;
56893;SDS011;43392;50.078;13.704;2023-08-12T02:33:52;12.50;;;7.78;;
56893;SDS011;43392;50.078;13.704;2023-08-12T02:36:18;11.75;;;7.50;;
56893;SDS011;43392;50.078;13.704;2023-08-12T02:38:45;14.95;;;7.93;;
56893;SDS011;43392;50.078;13.704;2023-08-12T02:41:11;11.85;;;7.68;;
56893;SDS011;43392;50.078;13.704;2023-08-12T02:43:38;14.15;;;7.70;;
56893;SDS011;43392;50.078;13.704;2023-08-12T02:46:05;12.10;;;8.15;;
56893;SDS011;43392;50.078;13.704;2023-08-12T02:48:33;12.20;;;7.60;;
56893;SDS011;43392;50.078;13.704;2023-08-12T02:51:00;16.08;;;7.80;;
56893;SDS011;43392;50.078;13.704;2023-08-12T02:53:26;12.15;;;7.47;;
56893;SDS011;43392;50.078;13.704;2023-08-12T02:55:53;14.05;;;8.10;;
56893;SDS011;43392;50.078;13.704;2023-08-12T02:58:19;11.32;;;7.78;;
56893;SDS011;43392;50.078;13.704;2023-08-12T03:00:46;13.68;;;8.43;;
56893;SDS011;43392;50.078;13.704;2023-08-12T03:03:13;16.10;;;8.68;;
56893;SDS011;43392;50.078;13.704;2023-08-12T03:05:41;15.20;;;8.90;;
56893;SDS011;43392;50.078;13.704;2023-08-12T03:08:08;14.38;;;8.80;;
56893;SDS011;43392;50.078;13.704;2023-08-12T03:10:35;15.73;;;9.18;;
56893;SDS011;43392;50.078;13.704;2023-08-12T03:13:02;14.52;;;8.65;;
56893;SDS011;43392;50.078;13.704;2023-08-12T03:15:29;15.07;;;8.73;;
56893;SDS011;43392;50.078;13.704;2023-08-12T03:17:55;12.20;;;9.00;;
56893;SDS011;43392;50.078;13.704;2023-08-12T03:20:23;13.77;;;8.50;;
56893;SDS011;43392;50.078;13.704;2023-08-12T03:22:51;12.52;;;7.35;;
56893;SDS011;43392;50.078;13.704;2023-08-12T03:25:17;12.40;;;7.28;;
56893;SDS011;43392;50.078;13.704;2023-08-12T03:27:44;11.27;;;6.57;;
56893;SDS011;43392;50.078;13.704;2023-08-12T03:30:11;11.32;;;6.47;;
56893;SDS011;43392;50.078;13.704;2023-08-12T03:32:38;15.55;;;6.75;;
56893;SDS011;43392;50.078;13.704;2023-08-12T03:35:05;10.07;;;5.97;;
56893;SDS011;43392;50.078;13.704;2023-08-12T03:37:32;9.52;;;6.03;;
56893;SDS011;43392;50.078;13.704;2023-08-12T03:40:00;11.00;;;6.07;;
56893;SDS011;43392;50.078;13.704;2023-08-12T03:42:27;10.27;;;5.97;;
56893;SDS011;43392;50.078;13.704;2023-08-12T03:44:53;17.52;;;6.70;;
56893;SDS011;43392;50.078;13.704;2023-08-12T03:47:20;13.10;;;7.70;;
56893;SDS011;43392;50.078;13.704;2023-08-12T03:49:48;12.85;;;8.95;;
56893;SDS011;43392;50.078;13.704;2023-08-12T03:52:15;13.10;;;8.63;;
56893;SDS011;43392;50.078;13.704;2023-08-12T03:54:42;15.20;;;10.13;;
56893;SDS011;43392;50.078;13.704;2023-08-12T03:57:10;18.33;;;12.63;;
56893;SDS011;43392;50.078;13.704;2023-08-12T03:59:36;27.40;;;17.77;;
56893;SDS011;43392;50.078;13.704;2023-08-12T04:02:03;21.52;;;13.68;;
56893;SDS011;43392;50.078;13.704;2023-08-12T04:04:30;14.60;;;9.23;;
56893;SDS011;43392;50.078;13.704;2023-08-12T04:06:56;15.90;;;8.45;;
56893;SDS011;43392;50.078;13.704;2023-08-12T04:09:23;15.85;;;8.40;;
56893;SDS011;43392;50.078;13.704;2023-08-12T04:11:50;21.02;;;12.02;;
56893;SDS011;43392;50.078;13.704;2023-08-12T04:14:18;26.10;;;14.57;;
56893;SDS011;43392;50.078;13.704;2023-08-12T04:16:45;22.33;;;14.07;;
56893;SDS011;43392;50.078;13.704;2023-08-12T04:19:11;29.05;;;19.60;;
56893;SDS011;43392;50.078;13.704;2023-08-12T04:21:38;27.55;;;19.02;;
56893;SDS011;43392;50.078;13.704;2023-08-12T04:24:05;20.25;;;12.18;;
56893;SDS011;43392;50.078;13.704;2023-08-12T04:26:32;18.63;;;10.70;;
56893;SDS011;43392;50.078;13.704;2023-08-12T04:28:59;20.27;;;11.70;;
56893;SDS011;43392;50.078;13.704;2023-08-12T04:31:27;18.67;;;12.40;;
56893;SDS011;43392;50.078;13.704;2023-08-12T04:33:53;15.23;;;9.52;;
56893;SDS011;43392;50.078;13.704;2023-08-12T04:36:20;13.95;;;7.90;;
56893;SDS011;43392;50.078;13.704;2023-08-12T04:38:47;12.95;;;7.18;;
56893;SDS011;43392;50.078;13.704;2023-08-12T04:41:13;12.52;;;7.50;;
56893;SDS011;43392;50.078;13.704;2023-08-12T04:43:40;12.52;;;7.80;;
56893;SDS011;43392;50.078;13.704;2023-08-12T04:46:06;12.93;;;7.97;;
56893;SDS011;43392;50.078;13.704;2023-08-12T04:48:34;16.40;;;8.77;;
56893;SDS011;43392;50.078;13.704;2023-08-12T04:51:01;14.10;;;9.30;;
56893;SDS011;43392;50.078;13.704;2023-08-12T04:53:28;12.90;;;7.68;;
56893;SDS011;43392;50.078;13.704;2023-08-12T04:55:55;12.50;;;7.63;;
56893;SDS011;43392;50.078;13.704;2023-08-12T04:58:22;13.13;;;8.27;;
56893;SDS011;43392;50.078;13.704;2023-08-12T05:00:49;12.55;;;8.38;;
56893;SDS011;43392;50.078;13.704;2023-08-12T05:03:16;13.43;;;8.77;;
56893;SDS011;43392;50.078;13.704;2023-08-12T05:05:44;15.00;;;9.57;;
56893;SDS011;43392;50.078;13.704;2023-08-12T05:08:15;17.45;;;9.18;;
56893;SDS011;43392;50.078;13.704;2023-08-12T05:10:42;17.27;;;10.68;;
56893;SDS011;43392;50.078;13.704;2023-08-12T05:13:08;18.95;;;11.38;;
56893;SDS011;43392;50.078;13.704;2023-08-12T05:15:35;20.60;;;12.15;;
56893;SDS011;43392;50.078;13.704;2023-08-12T05:18:02;15.45;;;10.40;;
56893;SDS011;43392;50.078;13.704;2023-08-12T05:20:29;18.08;;;10.65;;
56893;SDS011;43392;50.078;13.704;2023-08-12T05:22:57;16.20;;;10.57;;
56893;SDS011;43392;50.078;13.704;2023-08-12T05:25:23;17.20;;;10.48;;
56893;SDS011;43392;50.078;13.704;2023-08-12T05:27:50;15.52;;;10.05;;
56893;SDS011;43392;50.078;13.704;2023-08-12T05:30:17;15.85;;;9.90;;
56893;SDS011;43392;50.078;13.704;2023-08-12T05:32:43;14.45;;;9.45;;
56893;SDS011;43392;50.078;13.704;2023-08-12T05:35:10;14.00;;;8.85;;
56893;SDS011;43392;50.078;13.704;2023-08-12T05:37:36;14.13;;;9.50;;
56893;SDS011;43392;50.078;13.704;2023-08-12T05:40:05;19.65;;;10.57;;
56893;SDS011;43392;50.078;13.704;2023-08-12T05:42:34;17.95;;;10.88;;
56893;SDS011;43392;50.078;13.704;2023-08-12T05:45:01;16.45;;;10.40;;
56893;SDS011;43392;50.078;13.704;2023-08-12T05:47:28;18.35;;;11.05;;
56893;SDS011;43392;50.078;13.704;2023-08-12T05:49:55;16.63;;;10.48;;
56893;SDS011;43392;50.078;13.704;2023-08-12T05:52:21;23.92;;;10.55;;
56893;SDS011;43392;50.078;13.704;2023-08-12T05:54:48;21.60;;;10.82;;
56893;SDS011;43392;50.078;13.704;2023-08-12T05:57:16;19.30;;;11.90;;
56893;SDS011;43392;50.078;13.704;2023-08-12T05:59:42;23.73;;;11.98;;
56893;SDS011;43392;50.078;13.704;2023-08-12T06:02:09;32.08;;;13.05;;
56893;SDS011;43392;50.078;13.704;2023-08-12T06:04:35;34.67;;;12.38;;
56893;SDS011;43392;50.078;13.704;2023-08-12T06:07:02;24.98;;;11.82;;
56893;SDS011;43392;50.078;13.704;2023-08-12T06:09:29;22.35;;;12.43;;
56893;SDS011;43392;50.078;13.704;2023-08-12T06:11:55;20.08;;;12.18;;
56893;SDS011;43392;50.078;13.704;2023-08-12T06:14:23;21.00;;;12.93;;
56893;SDS011;43392;50.078;13.704;2023-08-12T06:16:50;20.48;;;12.00;;
56893;SDS011;43392;50.078;13.704;2023-08-12T06:19:15;19.95;;;12.23;;
56893;SDS011;43392;50.078;13.704;2023-08-12T06:21:42;18.23;;;11.80;;
56893;SDS011;43392;50.078;13.704;2023-08-12T06:24:09;16.38;;;10.95;;
56893;SDS011;43392;50.078;13.704;2023-08-12T06:26:35;15.27;;;9.82;;
56893;SDS011;43392;50.078;13.704;2023-08-12T06:29:02;15.63;;;10.45;;
56893;SDS011;43392;50.078;13.704;2023-08-12T06:31:30;17.83;;;10.52;;
56893;SDS011;43392;50.078;13.704;2023-08-12T06:33:56;17.48;;;9.88;;
56893;SDS011;43392;50.078;13.704;2023-08-12T06:36:23;15.07;;;8.30;;
56893;SDS011;43392;50.078;13.704;2023-08-12T06:38:49;14.00;;;8.30;;
56893;SDS011;43392;50.078;13.704;2023-08-12T06:41:16;11.77;;;7.55;;
56893;SDS011;43392;50.078;13.704;2023-08-12T06:43:43;14.40;;;7.60;;
56893;SDS011;43392;50.078;13.704;2023-08-12T06:46:09;10.27;;;7.03;;
56893;SDS011;43392;50.078;13.704;2023-08-12T06:48:37;16.25;;;10.05;;
56893;SDS011;43392;50.078;13.704;2023-08-12T06:51:04;17.63;;;10.45;;
56893;SDS011;43392;50.078;13.704;2023-08-12T06:53:35;16.38;;;10.13;;
56893;SDS011;43392;50.078;13.704;2023-08-12T06:56:02;17.30;;;10.10;;
56893;SDS011;43392;50.078;13.704;2023-08-12T06:58:29;18.70;;;11.98;;
56893;SDS011;43392;50.078;13.704;2023-08-12T07:00:55;21.58;;;14.13;;
56893;SDS011;43392;50.078;13.704;2023-08-12T07:03:24;20.52;;;13.80;;
56893;SDS011;43392;50.078;13.704;2023-08-12T07:05:52;15.57;;;9.30;;
56893;SDS011;43392;50.078;13.704;2023-08-12T07:08:19;17.65;;;11.77;;
56893;SDS011;43392;50.078;13.704;2023-08-12T07:10:45;17.45;;;9.30;;
56893;SDS011;43392;50.078;13.704;2023-08-12T07:13:12;19.17;;;10.63;;
56893;SDS011;43392;50.078;13.704;2023-08-12T07:15:39;15.18;;;8.75;;
56893;SDS011;43392;50.078;13.704;2023-08-12T07:18:05;13.48;;;9.13;;
56893;SDS011;43392;50.078;13.704;2023-08-12T07:20:32;16.25;;;8.95;;
56893;SDS011;43392;50.078;13.704;2023-08-12T07:23:00;12.15;;;7.70;;
56893;SDS011;43392;50.078;13.704;2023-08-12T07:25:26;11.18;;;7.03;;
56893;SDS011;43392;50.078;13.704;2023-08-12T07:27:53;12.68;;;7.75;;
56893;SDS011;43392;50.078;13.704;2023-08-12T07:30:20;10.98;;;7.18;;
56893;SDS011;43392;50.078;13.704;2023-08-12T07:32:46;14.05;;;7.35;;
56893;SDS011;43392;50.078;13.704;2023-08-12T07:35:13;12.98;;;7.22;;
56893;SDS011;43392;50.078;13.704;2023-08-12T07:37:40;11.63;;;6.93;;
56893;SDS011;43392;50.078;13.704;2023-08-12T07:40:08;12.68;;;7.63;;
56893;SDS011;43392;50.078;13.704;2023-08-12T07:42:36;9.68;;;7.07;;
56893;SDS011;43392;50.078;13.704;2023-08-12T07:45:03;10.80;;;7.07;;
56893;SDS011;43392;50.078;13.704;2023-08-12T07:47:30;10.65;;;6.93;;
56893;SDS011;43392;50.078;13.704;2023-08-12T07:49:56;9.98;;;6.47;;
56893;SDS011;43392;50.078;13.704;2023-08-12T07:52:23;9.77;;;5.97;;
56893;SDS011;43392;50.078;13.704;2023-08-12T07:54:50;11.60;;;5.70;;
56893;SDS011;43392;50.078;13.704;2023-08-12T07:57:18;8.27;;;5.88;;
56893;SDS011;43392;50.078;13.704;2023-08-12T07:59:49;12.38;;;6.60;;
56893;SDS011;43392;50.078;13.704;2023-08-12T08:02:15;11.10;;;7.20;;
56893;SDS011;43392;50.078;13.704;2023-08-12T08:04:42;11.30;;;6.32;;
56893;SDS011;43392;50.078;13.704;2023-08-12T08:07:09;9.65;;;6.22;;
56893;SDS011;43392;50.078;13.704;2023-08-12T08:09:35;13.13;;;7.70;;
56893;SDS011;43392;50.078;13.704;2023-08-12T08:12:02;12.23;;;6.15;;
56893;SDS011;43392;50.078;13.704;2023-08-12T08:14:30;10.00;;;5.65;;
56893;SDS011;43392;50.078;13.704;2023-08-12T08:16:57;10.20;;;5.45;;
56893;SDS011;43392;50.078;13.704;2023-08-12T08:19:23;8.35;;;4.65;;
56893;SDS011;43392;50.078;13.704;2023-08-12T08:21:50;8.13;;;4.30;;
56893;SDS011;43392;50.078;13.704;2023-08-12T08:24:17;7.97;;;4.13;;
56893;SDS011;43392;50.078;13.704;2023-08-12T08:26:43;10.27;;;4.65;;
56893;SDS011;43392;50.078;13.704;2023-08-12T08:29:10;9.27;;;4.43;;
56893;SDS011;43392;50.078;13.704;2023-08-12T08:31:38;7.20;;;4.35;;
56893;SDS011;43392;50.078;13.704;2023-08-12T08:34:06;9.10;;;4.30;;
56893;SDS011;43392;50.078;13.704;2023-08-12T08:36:32;7.13;;;3.67;;
56893;SDS011;43392;50.078;13.704;2023-08-12T08:38:59;7.38;;;3.80;;
56893;SDS011;43392;50.078;13.704;2023-08-12T08:41:26;4.97;;;3.08;;
56893;SDS011;43392;50.078;13.704;2023-08-12T08:46:27;4.68;;;2.30;;
56893;SDS011;43392;50.078;13.704;2023-08-12T08:48:55;4.05;;;2.40;;
56893;SDS011;43392;50.078;13.704;2023-08-12T08:51:25;4.75;;;2.60;;
56893;SDS011;43392;50.078;13.704;2023-08-12T08:53:52;5.05;;;2.42;;
56893;SDS011;43392;50.078;13.704;2023-08-12T08:56:20;3.60;;;2.40;;
56893;SDS011;43392;50.078;13.704;2023-08-12T08:58:48;3.63;;;2.15;;
56893;SDS011;43392;50.078;13.704;2023-08-12T09:01:14;3.38;;;2.03;;
56893;SDS011;43392;50.078;13.704;2023-08-12T09:03:43;4.18;;;2.28;;
56893;SDS011;43392;50.078;13.704;2023-08-12T09:06:12;5.72;;;2.50;;
56893;SDS011;43392;50.078;13.704;2023-08-12T09:08:40;5.28;;;2.53;;
56893;SDS011;43392;50.078;13.704;2023-08-12T09:11:11;4.13;;;2.40;;
56893;SDS011;43392;50.078;13.704;2023-08-12T09:13:39;7.03;;;2.47;;
56893;SDS011;43392;50.078;13.704;2023-08-12T09:16:06;3.47;;;2.53;;
56893;SDS011;43392;50.078;13.704;2023-08-12T09:18:32;3.88;;;2.08;;
56893;SDS011;43392;50.078;13.704;2023-08-12T09:20:59;4.40;;;2.30;;
56893;SDS011;43392;50.078;13.704;2023-08-12T09:23:27;5.22;;;2.60;;
56893;SDS011;43392;50.078;13.704;2023-08-12T09:25:54;3.58;;;2.15;;
56893;SDS011;43392;50.078;13.704;2023-08-12T09:28:21;4.93;;;2.15;;
56893;SDS011;43392;50.078;13.704;2023-08-12T09:30:49;3.97;;;2.20;;
56893;SDS011;43392;50.078;13.704;2023-08-12T09:33:17;5.17;;;2.00;;
56893;SDS011;43392;50.078;13.704;2023-08-12T09:35:50;5.90;;;2.45;;
56893;SDS011;43392;50.078;13.704;2023-08-12T09:38:17;6.70;;;2.30;;
56893;SDS011;43392;50.078;13.704;2023-08-12T09:40:46;5.03;;;2.58;;
56893;SDS011;43392;50.078;13.704;2023-08-12T09:43:13;3.92;;;2.08;;
56893;SDS011;43392;50.078;13.704;2023-08-12T09:45:43;6.40;;;2.55;;
56893;SDS011;43392;50.078;13.704;2023-08-12T09:48:11;4.78;;;2.50;;
56893;SDS011;43392;50.078;13.704;2023-08-12T09:50:38;4.40;;;2.40;;
56893;SDS011;43392;50.078;13.704;2023-08-12T09:53:04;3.72;;;2.20;;
56893;SDS011;43392;50.078;13.704;2023-08-12T09:55:32;4.78;;;2.22;;
56893;SDS011;43392;50.078;13.704;2023-08-12T09:58:03;5.47;;;2.33;;
56893;SDS011;43392;50.078;13.704;2023-08-12T10:00:33;4.75;;;2.35;;
56893;SDS011;43392;50.078;13.704;2023-08-12T10:03:00;4.07;;;2.00;;
56893;SDS011;43392;50.078;13.704;2023-08-12T10:05:30;3.85;;;2.22;;
56893;SDS011;43392;50.078;13.704;2023-08-12T10:07:59;4.35;;;2.10;;
56893;SDS011;43392;50.078;13.704;2023-08-12T10:10:28;6.40;;;1.92;;
56893;SDS011;43392;50.078;13.704;2023-08-12T10:12:56;4.82;;;1.92;;
56893;SDS011;43392;50.078;13.704;2023-08-12T10:15:25;4.00;;;1.73;;
56893;SDS011;43392;50.078;13.704;2023-08-12T10:17:52;2.83;;;1.50;;
56893;SDS011;43392;50.078;13.704;2023-08-12T10:20:20;4.15;;;1.85;;
56893;SDS011;43392;50.078;13.704;2023-08-12T10:22:48;3.30;;;1.63;;
56893;SDS011;43392;50.078;13.704;2023-08-12T10:25:15;3.10;;;1.60;;
56893;SDS011;43392;50.078;13.704;2023-08-12T10:27:46;3.95;;;1.70;;
56893;SDS011;43392;50.078;13.704;2023-08-12T10:30:13;4.20;;;1.70;;
56893;SDS011;43392;50.078;13.704;2023-08-12T10:32:41;2.88;;;1.60;;
56893;SDS011;43392;50.078;13.704;2023-08-12T10:35:09;4.32;;;1.60;;
56893;SDS011;43392;50.078;13.704;2023-08-12T10:37:36;1.90;;;1.38;;
56893;SDS011;43392;50.078;13.704;2023-08-12T10:40:03;2.20;;;1.40;;
56893;SDS011;43392;50.078;13.704;2023-08-12T10:42:41;3.72;;;1.52;;
56893;SDS011;43392;50.078;13.704;2023-08-12T10:45:09;3.35;;;1.50;;
56893;SDS011;43392;50.078;13.704;2023-08-12T10:47:37;3.55;;;1.35;;
56893;SDS011;43392;50.078;13.704;2023-08-12T10:50:10;2.10;;;1.52;;
56893;SDS011;43392;50.078;13.704;2023-08-12T10:52:43;2.50;;;1.60;;
56893;SDS011;43392;50.078;13.704;2023-08-12T10:55:17;4.60;;;1.65;;
56893;SDS011;43392;50.078;13.704;2023-08-12T10:57:45;5.10;;;1.20;;
56893;SDS011;43392;50.078;13.704;2023-08-12T11:00:13;3.88;;;1.45;;
56893;SDS011;43392;50.078;13.704;2023-08-12T11:02:43;4.80;;;1.50;;
56893;SDS011;43392;50.078;13.704;2023-08-12T11:05:12;3.10;;;1.45;;
56893;SDS011;43392;50.078;13.704;2023-08-12T11:07:40;3.08;;;1.42;;
56893;SDS011;43392;50.078;13.704;2023-08-12T11:10:12;4.95;;;1.52;;
56893;SDS011;43392;50.078;13.704;2023-08-12T11:12:41;5.25;;;1.45;;
56893;SDS011;43392;50.078;13.704;2023-08-12T11:15:08;3.28;;;1.70;;
56893;SDS011;43392;50.078;13.704;2023-08-12T11:17:36;3.70;;;1.95;;
56893;SDS011;43392;50.078;13.704;2023-08-12T11:20:05;3.35;;;1.80;;
56893;SDS011;43392;50.078;13.704;2023-08-12T11:22:36;3.00;;;1.55;;
56893;SDS011;43392;50.078;13.704;2023-08-12T11:25:04;4.60;;;1.88;;
56893;SDS011;43392;50.078;13.704;2023-08-12T11:27:37;3.97;;;2.03;;
56893;SDS011;43392;50.078;13.704;2023-08-12T11:30:05;4.28;;;2.10;;
56893;SDS011;43392;50.078;13.704;2023-08-12T11:32:32;2.55;;;1.75;;
56893;SDS011;43392;50.078;13.704;2023-08-12T11:34:59;4.10;;;1.67;;
56893;SDS011;43392;50.078;13.704;2023-08-12T11:37:26;3.60;;;1.60;;
56893;SDS011;43392;50.078;13.704;2023-08-12T11:39:54;3.70;;;1.60;;
56893;SDS011;43392;50.078;13.704;2023-08-12T11:42:20;3.97;;;1.52;;
56893;SDS011;43392;50.078;13.704;2023-08-12T11:44:47;2.40;;;1.60;;
56893;SDS011;43392;50.078;13.704;2023-08-12T11:47:14;5.40;;;1.58;;
56893;SDS011;43392;50.078;13.704;2023-08-12T11:49:40;3.90;;;1.45;;
56893;SDS011;43392;50.078;13.704;2023-08-12T11:52:08;4.00;;;1.70;;
56893;SDS011;43392;50.078;13.704;2023-08-12T11:54:36;2.08;;;1.23;;
56893;SDS011;43392;50.078;13.704;2023-08-12T11:57:05;3.35;;;1.52;;
56893;SDS011;43392;50.078;13.704;2023-08-12T11:59:31;3.92;;;1.60;;
56893;SDS011;43392;50.078;13.704;2023-08-12T12:02:01;4.22;;;1.55;;
56893;SDS011;43392;50.078;13.704;2023-08-12T12:04:27;2.78;;;1.65;;
56893;SDS011;43392;50.078;13.704;2023-08-12T12:06:56;4.15;;;1.70;;
56893;SDS011;43392;50.078;13.704;2023-08-12T12:09:23;5.32;;;1.50;;
56893;SDS011;43392;50.078;13.704;2023-08-12T12:11:52;2.45;;;1.70;;
56893;SDS011;43392;50.078;13.704;2023-08-12T12:14:20;3.20;;;1.75;;
56893;SDS011;43392;50.078;13.704;2023-08-12T12:16:48;3.03;;;1.50;;
56893;SDS011;43392;50.078;13.704;2023-08-12T12:19:16;4.68;;;1.40;;
56893;SDS011;43392;50.078;13.704;2023-08-12T12:21:45;3.92;;;1.33;;
56893;SDS011;43392;50.078;13.704;2023-08-12T12:24:13;3.45;;;1.40;;
56893;SDS011;43392;50.078;13.704;2023-08-12T12:26:39;3.20;;;1.52;;
56893;SDS011;43392;50.078;13.704;2023-08-12T12:29:07;2.95;;;1.40;;
56893;SDS011;43392;50.078;13.704;2023-08-12T12:31:38;4.05;;;1.13;;
56893;SDS011;43392;50.078;13.704;2023-08-12T12:34:05;3.15;;;1.40;;
56893;SDS011;43392;50.078;13.704;2023-08-12T12:36:34;3.97;;;1.75;;
56893;SDS011;43392;50.078;13.704;2023-08-12T12:39:01;2.93;;;1.37;;
56893;SDS011;43392;50.078;13.704;2023-08-12T12:41:28;3.20;;;1.27;;
56893;SDS011;43392;50.078;13.704;2023-08-12T12:43:55;3.67;;;1.25;;
56893;SDS011;43392;50.078;13.704;2023-08-12T12:46:21;3.45;;;1.38;;
56893;SDS011;43392;50.078;13.704;2023-08-12T12:48:50;3.03;;;1.30;;
56893;SDS011;43392;50.078;13.704;2023-08-12T12:51:16;1.73;;;1.10;;
56893;SDS011;43392;50.078;13.704;2023-08-12T12:53:43;2.70;;;1.40;;
56893;SDS011;43392;50.078;13.704;2023-08-12T12:56:09;3.35;;;1.10;;
56893;SDS011;43392;50.078;13.704;2023-08-12T12:58:36;3.22;;;1.30;;
56893;SDS011;43392;50.078;13.704;2023-08-12T13:01:04;7.05;;;1.45;;
56893;SDS011;43392;50.078;13.704;2023-08-12T13:03:31;3.35;;;1.40;;
56893;SDS011;43392;50.078;13.704;2023-08-12T13:05:59;3.22;;;1.60;;
56893;SDS011;43392;50.078;13.704;2023-08-12T13:08:27;4.30;;;1.40;;
56893;SDS011;43392;50.078;13.704;2023-08-12T13:10:54;2.42;;;1.30;;
56893;SDS011;43392;50.078;13.704;2023-08-12T13:13:21;1.73;;;1.10;;
56893;SDS011;43392;50.078;13.704;2023-08-12T13:15:48;2.20;;;1.20;;
56893;SDS011;43392;50.078;13.704;2023-08-12T13:18:15;3.65;;;1.33;;
56893;SDS011;43392;50.078;13.704;2023-08-12T13:20:42;2.78;;;1.20;;
56893;SDS011;43392;50.078;13.704;2023-08-12T13:23:10;2.15;;;1.20;;
56893;SDS011;43392;50.078;13.704;2023-08-12T13:25:37;1.77;;;1.00;;
56893;SDS011;43392;50.078;13.704;2023-08-12T13:28:04;1.38;;;1.08;;
56893;SDS011;43392;50.078;13.704;2023-08-12T13:30:31;1.25;;;1.00;;
56893;SDS011;43392;50.078;13.704;2023-08-12T13:32:57;2.85;;;1.17;;
56893;SDS011;43392;50.078;13.704;2023-08-12T13:35:24;3.80;;;1.23;;
56893;SDS011;43392;50.078;13.704;2023-08-12T13:37:51;2.28;;;0.98;;
56893;SDS011;43392;50.078;13.704;2023-08-12T13:40:19;1.95;;;1.10;;
56893;SDS011;43392;50.078;13.704;2023-08-12T13:42:46;2.20;;;1.20;;
56893;SDS011;43392;50.078;13.704;2023-08-12T13:45:13;1.70;;;1.10;;
56893;SDS011;43392;50.078;13.704;2023-08-12T13:47:39;2.45;;;1.30;;
56893;SDS011;43392;50.078;13.704;2023-08-12T13:50:06;3.80;;;1.40;;
56893;SDS011;43392;50.078;13.704;2023-08-12T13:52:33;2.17;;;1.10;;
56893;SDS011;43392;50.078;13.704;2023-08-12T13:55:00;1.98;;;1.33;;
56893;SDS011;43392;50.078;13.704;2023-08-12T13:57:28;5.53;;;1.40;;
56893;SDS011;43392;50.078;13.704;2023-08-12T13:59:56;3.55;;;1.30;;
56893;SDS011;43392;50.078;13.704;2023-08-12T14:02:22;1.50;;;1.20;;
56893;SDS011;43392;50.078;13.704;2023-08-12T14:04:49;3.53;;;1.40;;
56893;SDS011;43392;50.078;13.704;2023-08-12T14:07:16;1.75;;;1.40;;
56893;SDS011;43392;50.078;13.704;2023-08-12T14:09:45;3.17;;;1.63;;
56893;SDS011;43392;50.078;13.704;2023-08-12T14:12:12;4.40;;;1.30;;
56893;SDS011;43392;50.078;13.704;2023-08-12T14:14:41;2.83;;;1.40;;
56893;SDS011;43392;50.078;13.704;2023-08-12T14:17:08;2.20;;;1.30;;
56893;SDS011;43392;50.078;13.704;2023-08-12T14:19:38;3.45;;;1.38;;
56893;SDS011;43392;50.078;13.704;2023-08-12T14:22:05;4.05;;;1.35;;
56893;SDS011;43392;50.078;13.704;2023-08-12T14:24:33;2.88;;;1.40;;
56893;SDS011;43392;50.078;13.704;2023-08-12T14:26:59;4.30;;;1.42;;
56893;SDS011;43392;50.078;13.704;2023-08-12T14:29:26;4.40;;;1.50;;
56893;SDS011;43392;50.078;13.704;2023-08-12T14:31:54;2.50;;;1.52;;